Aérodrome :
LOGIN :

S'inscrire | Disclaimer

   EN    FR    IT 

 










Légende :    VFR   VFR Marginal   IFR   IFR Intensif   IFR Très Intensif
Visi : 
Plafond : 
>= 8 km
>= 3000ft
5 à 8 km
1000 à 3000 ft
1500m à 5 km
500 à 1000 ft
800 à 1500m
200 à 500 ft
< 800m
< 200 ft
Symboles :   Orages  Brouillard  Fortes neiges  Fortes précipitations  Vent > 20 kt
SIGMETs :   Divers  Orages  Givrage  Turbulence  Onde Orograph.  Cendres Volcan.






- Altitude de l'aérodrome : 357 ft
- Code IATA : TUF


LFOT - Tours

DERNIER METAR :
  • 021630Z AUTO 29009KT 250V320 CAVOK 21/09 Q1017 TEMPO SCT040TCU

METARs EXPIRÉS :
  • 021600Z AUTO 24008KT 200V270 9999 BKN049 BKN062 22/10 Q1017 TEMPO SCT040TCU
  • 021530Z AUTO 26007KT 210V300 CAVOK 21/11 Q1017 TEMPO SCT040TCU
  • 021500Z AUTO 26009KT 230V290 9999 FEW044 BKN090 BKN240 21/10 Q1017 TEMPO SCT040TCU
  • 021430Z AUTO 28008KT 230V330 CAVOK 21/10 Q1017 TEMPO SCT040TCU
  • 021400Z AUTO 27010KT 240V310 9999 BKN043 BKN052 OVC082 20/10 Q1017 TEMPO SCT040TCU
  • 021330Z AUTO 23009KT 200V290 9999 SCT042 BKN056 BKN080 20/10 Q1017 TEMPO SCT040TCU

TAF TAF LFOT
Valide du 02 à 12h jusqu'au 03 à 12h UTC


021100Z 0212/0312 28010KT 9999 BKN040
PROB30
TEMPO 0212/0224 -SHRA SCT040TCU



MET'MAP, la Météo Aéronautique d'un coup d'oeil ! - Copyright ORBIFLY Décembre 2007 - Disclaimer

ORBIFLY MET'MAP TEAM :

Programmation & Développement : Alexandra Zaïnal
Sur une idée originale de : Baudouin d'Aumeries
Assistance à la programmation : Marc-Olivier Méhu
Soutien technique & logistique : Manuel Goepfert

Contact : metmap@orbifly.com




SOURCES & CREDITS :

   NOAA